Nearby METAR Reports

 

KHFD - Hartford/Brainar, Connecticut, USA
Distance from station: ESE 5mi, 8km
Updated: Mon, 17-Jan-2022 7:25pm EST
Light snow, Mist, Overcast
Light snow, Mist, Overcast
 Wind from S
Wind: S 8 mph , 13 km/h
Temperature: 34°F , 1°C
Wind Chill: 27°F , -3°C
Dew Point: 30°F , -1°C
Humidity: 87%
Barometer: 29.18 inHg , 988.1 hPa
Summary: Light snow, Mist
Clouds: Overcast
Visibility: 3 miles , 5 km
Cloud details: Partly cloudy 900 ft
Overcast 1700 ft
2022/01/18 00:25 KHFD 180025Z 19007KT 3SM -SN BR SCT009 OVC017 01/M01 A2918 RMK AO2 P0001 T00111006
KBDL - Windsor Locks, Connecticut, USA
Distance from station: NNE 12mi, 20km
Updated: Mon, 17-Jan-2022 7:12pm EST
Light snow, Mist, Overcast
Light snow, Mist, Overcast
 Wind from S
Wind: S 10 mph , 17 km/h
Temperature: 34°F , 1°C
Wind Chill: 26°F , -3°C
Dew Point: 32°F , 0°C
Humidity: 93%
Barometer: 29.15 inHg , 987.1 hPa
Summary: Light snow, Mist
Clouds: Overcast
Visibility: 1 3/4 miles , 2.8 km
Cloud details: Mostly cloudy 500 ft
Overcast 1300 ft
2022/01/18 00:12 KBDL 180012Z 18009KT 1 3/4SM -SN BR BKN005 OVC013 01/00 A2915 RMK AO2 SFC VIS 2 1/2 P0001 T00060000
 
KMMK - Meriden, Connecticut, USA
Distance from station: SSW 18mi, 28km
Updated: Mon, 17-Jan-2022 7:09pm EST
Light snow, Mist, Overcast
Light snow, Mist, Overcast
 Wind from S
Wind: S 6 mph , 9 km/h
Temperature: 34°F , 1°C
Wind Chill: 29°F , -2°C
Dew Point: 30°F , -1°C
Humidity: 87%
Barometer: 29.18 inHg , 988.1 hPa
Summary: Light snow, Mist
Clouds: Overcast
Visibility: 3 miles , 5 km
Cloud details: Mostly cloudy 1200 ft
Overcast 1900 ft
2022/01/18 00:09 KMMK 180009Z AUTO 17005KT 3SM -SN BR BKN012 OVC019 01/M01 A2918 RMK AO2 P0000 T00061011 $
KBAF - Westfield, Massachusetts, USA
Distance from station: N 28mi, 45km
Updated: Mon, 17-Jan-2022 6:53pm EST
Overcast
Overcast
 Wind from S
Wind: S 13 mph , 20 km/h
Temperature: 36°F , 2°C
Wind Chill: 27°F , -3°C
Dew Point: 30°F , -1°C
Humidity: 81%
Barometer: 29.12 inHg , 986.1 hPa
Clouds: Overcast
Visibility: 10 miles , 16 km
Cloud details: Overcast 1900 ft
2022/01/17 23:53 KBAF 172353Z 19011KT 10SM OVC019 02/M01 A2912 RMK AO2 SLP866 60000 T00171006 10050 20017 51018
 
KIJD - Willimantic, Connecticut, USA
Distance from station: E 29mi, 46km
Updated: Mon, 17-Jan-2022 7:16pm EST
Light snow, Mist, Overcast
Light snow, Mist, Overcast
 Wind from SW
Wind: SW 9 mph , 15 km/h
Temperature: 34°F , 1°C
Wind Chill: 27°F , -3°C
Dew Point: 30°F , -1°C
Humidity: 87%
Barometer: 29.18 inHg , 988.1 hPa
Summary: Light snow, Mist
Clouds: Overcast
Visibility: 2 1/2 miles , 4 km
Cloud details: Few Clouds 1700 ft
Mostly cloudy 2200 ft
Overcast 5000 ft
2022/01/18 00:16 KIJD 180016Z AUTO 22008KT 2 1/2SM -SN BR FEW017 BKN022 OVC050 01/M01 A2918 RMK AO2 SNB2353 P0000 T00111011 TSNO
KOXC - Oxford/Waterbury, Connecticut, USA
Distance from station: SW 29mi, 46km
Updated: Mon, 17-Jan-2022 7:22pm EST
Light snow, Mist, Overcast
Light snow, Mist, Overcast
 Wind from WSW
Wind: WSW 8 mph , 13 km/h
Temperature: 30°F , -1°C
Wind Chill: 22°F , -6°C
Dew Point: 30°F , -1°C
Humidity: 100%
Barometer: 29.17 inHg , 987.8 hPa
Summary: Light snow, Mist
Clouds: Overcast
Visibility: 4 miles , 6 km
Cloud details: Partly cloudy 500 ft
Overcast 2200 ft
2022/01/18 00:22 KOXC 180022Z 24007KT 4SM -SN BR SCT005 OVC022 M01/M01 A2917 RMK AO2 P0000
 
KSNC - Chester, Connecticut, USA
Distance from station: SSE 29mi, 47km
Updated: Mon, 17-Jan-2022 7:35pm EST
Light snow, Overcast
Light snow, Overcast
 Wind from SW
Wind: SW 13 mph , 20 km/h, Gust: 22 mph , 35 km/h
Temperature: 34°F , 1°C
Wind Chill: 25°F , -4°C
Dew Point: 32°F , 0°C
Humidity: 93%
Barometer: 29.19 inHg , 988.5 hPa
Summary: Light Snow
Clouds: Overcast
Visibility: 2 miles , 3 km
Cloud details: Mostly cloudy 100 ft
Overcast 800 ft
2022/01/18 00:35 KSNC 180035Z AUTO 22011G19KT 2SM -SN BKN001 OVC008 01/00 A2919 RMK AO2
KCEF - Chicopee/Westove, Massachusetts, USA
Distance from station: NNE 32mi, 52km
Updated: Mon, 17-Jan-2022 7:22pm EST
Overcast
Overcast
 Wind from SSW
Wind: SSW 14 mph , 22 km/h
Temperature: 34°F , 1°C
Wind Chill: 25°F , -4°C
Dew Point: 32°F , 0°C
Humidity: 93%
Barometer: 29.12 inHg , 986.1 hPa
Clouds: Overcast
Visibility: 10 miles , 16 km
Cloud details: Mostly cloudy 700 ft
Overcast 1800 ft
2022/01/18 00:22 KCEF 180022Z 21012KT 10SM BKN007 OVC018 01/00 A2912 RMK AO2A SLPNO ALSTG ESTMD $
 
KHVN - New Haven/Tweed, Connecticut, USA
Distance from station: S 35mi, 56km
Updated: Mon, 17-Jan-2022 7:01pm EST
Light snow, Overcast
Light snow, Overcast
 Wind from SW
Wind: SW 15 mph , 24 km/h, Gust: 23 mph , 37 km/h
Temperature: 37°F , 3°C
Wind Chill: 28°F , -2°C
Dew Point: 32°F , 0°C
Humidity: 81%
Barometer: 29.20 inHg , 988.8 hPa
Summary: Light Snow
Clouds: Overcast
Visibility: 5 miles , 8 km
Cloud details: Few Clouds 1000 ft
Mostly cloudy 2000 ft
Overcast 5500 ft
2022/01/18 00:01 KHVN 180001Z 23013G20KT 5SM -SN FEW010 BKN020 OVC055 03/00 A2920 RMK AO2 P0000 T00280000
KBDR - Bridgeport, Connecticut, USA
Distance from station: SSW 46mi, 74km
Updated: Mon, 17-Jan-2022 7:02pm EST
Overcast
Overcast
 Wind from SW
Wind: SW 16 mph , 26 km/h, Gust: 28 mph , 44 km/h
Temperature: 36°F , 2°C
Wind Chill: 26°F , -3°C
Dew Point: 32°F , 0°C
Humidity: 87%
Barometer: 29.21 inHg , 989.2 hPa
Clouds: Overcast
Visibility: 10 miles , 16 km
Cloud details: Few Clouds 1200 ft
Overcast 4000 ft
2022/01/18 00:02 KBDR 180002Z 23014G24KT 10SM UP FEW012 OVC040 02/00 A2921 RMK AO2 P0000 T00170000
 
KGON - Groton/New Londo, Connecticut, USA
Distance from station: SE 46mi, 75km
Updated: Mon, 17-Jan-2022 6:56pm EST
Overcast
Overcast
 Wind from SW
Wind: SW 17 mph , 28 km/h
Temperature: 37°F , 3°C
Wind Chill: 27°F , -3°C
Dew Point: 28°F , -2°C
Humidity: 70%
Barometer: 29.19 inHg , 988.5 hPa
Clouds: Overcast
Visibility: 10 miles , 16 km
Cloud details: Overcast 2600 ft
2022/01/17 23:56 KGON 172356Z 23015KT 10SM OVC026 03/M02 A2919 RMK AO2 SLP885 60000 T00331022 10056 20028 53020
KDXR - Danbury, Connecticut, USA
Distance from station: SW 47mi, 76km
Updated: Mon, 17-Jan-2022 7:22pm EST
Overcast
Overcast
 Wind from W
Wind: W 9 mph , 15 km/h
Temperature: 37°F , 3°C
Wind Chill: 30°F , -1°C
Dew Point: 25°F , -4°C
Humidity: 60%
Barometer: 29.19 inHg , 988.5 hPa
Clouds: Overcast
Visibility: 10 miles , 16 km
Cloud details: Mostly cloudy 3200 ft
Overcast 4900 ft
2022/01/18 00:22 KDXR 180022Z 27008KT 10SM BKN032 OVC049 03/M04 A2919 RMK AO2 T00281039 $
 
KPSF - Pittsfield, Massachusetts, USA
Distance from station: NNW 54mi, 87km
Updated: Mon, 17-Jan-2022 7:16pm EST
Light snow, Mist, Overcast
Light snow, Mist, Overcast
 Wind from WNW
Wind: WNW 13 mph , 20 km/h, Gust: 26 mph , 43 km/h
Temperature: 32°F , 0°C
Wind Chill: 22°F , -6°C
Dew Point: 28°F , -2°C
Humidity: 87%
Barometer: 29.10 inHg , 985.4 hPa
Summary: Light snow, Mist
Clouds: Overcast
Visibility: 4 miles , 6 km
Cloud details: Mostly cloudy 1100 ft
Overcast 1700 ft
2022/01/18 00:16 KPSF 180016Z AUTO 29011G23KT 4SM -SN BR BKN011 OVC017 00/M02 A2910 RMK AO2 P0000 T00001022
KWST - Westerly, Rhode Island, USA
Distance from station: ESE 56mi, 91km
Updated: Mon, 17-Jan-2022 6:53pm EST
Overcast
Overcast
 Wind from SW
Wind: SW 13 mph , 20 km/h, Gust: 24 mph , 39 km/h
Temperature: 37°F , 3°C
Wind Chill: 29°F , -2°C
Dew Point: 28°F , -2°C
Humidity: 70%
Barometer: 29.20 inHg , 988.8 hPa
Clouds: Overcast
Visibility: 10 miles , 16 km
Cloud details: Overcast 2700 ft
2022/01/17 23:53 KWST 172353Z AUTO 22011G21KT 10SM OVC027 03/M02 A2920 RMK AO2 SLP887 60000 T00331022 10061 20033 51020
 
KORH - Worcester, Massachusetts, USA
Distance from station: NE 57mi, 92km
Updated: Mon, 17-Jan-2022 7:17pm EST
Light snow, Mist, Overcast
Light snow, Mist, Overcast
 Wind from SW
Wind: SW 10 mph , 17 km/h
Temperature: 34°F , 1°C
Wind Chill: 26°F , -3°C
Dew Point: 30°F , -1°C
Humidity: 87%
Barometer: 29.10 inHg , 985.4 hPa
Summary: Light snow, Mist
Clouds: Overcast
Visibility: 1 1/2 miles , 2.4 km
Cloud details: Mostly cloudy 900 ft
Overcast 1300 ft
2022/01/18 00:17 KORH 180017Z 22009KT 1 1/2SM -SN BR BKN009 OVC013 01/M01 A2910 RMK AO2 P0001 T00061011
KPOU - Poughkeepsie, New York, USA
Distance from station: W 60mi, 96km
Updated: Mon, 17-Jan-2022 6:53pm EST
Overcast
Overcast
 Wind from W
Wind: W 10 mph , 17 km/h
Temperature: 37°F , 3°C
Wind Chill: 30°F , -1°C
Dew Point: 27°F , -3°C
Humidity: 65%
Barometer: 29.19 inHg , 988.5 hPa
Clouds: Overcast
Visibility: 10 miles , 16 km
Cloud details: Few Clouds 3300 ft
Mostly cloudy 4200 ft
Overcast 5500 ft
2022/01/17 23:53 KPOU 172353Z 26009KT 10SM FEW033 BKN042 OVC055 03/M03 A2919 RMK AO2 SLP881 60000 T00281033 10033 20022 53035
 
KORE - Orange, Massachusetts, USA
Distance from station: NNE 60mi, 97km
Updated: Mon, 17-Jan-2022 6:52pm EST
Overcast
Overcast
 Wind from S
Wind: S 8 mph , 13 km/h
Temperature: 36°F , 2°C
Wind Chill: 30°F , -1°C
Dew Point: 30°F , -1°C
Humidity: 81%
Barometer: 29.10 inHg , 985.4 hPa
Clouds: Overcast
Visibility: 10 miles , 16 km
Cloud details: Overcast 1400 ft
2022/01/17 23:52 KORE 172352Z AUTO 19007KT 10SM OVC014 02/M01 A2910 RMK AO2 SLP860 60000 T00171011 10044 20017 53014
KHTO - East Hampton, New York, USA
Distance from station: SSE 62mi, 99km
Updated: Mon, 17-Jan-2022 7:15pm EST
Overcast
Overcast
 Wind from WSW
Wind: WSW 17 mph , 28 km/h, Gust: 26 mph , 43 km/h
Temperature: 36°F , 2°C
Wind Chill: 26°F , -3°C
Dew Point: 27°F , -3°C
Humidity: 70%
Barometer: 29.22 inHg , 989.5 hPa
Clouds: Overcast
Visibility: 10 miles , 16 km
Cloud details: Overcast 4000 ft
2022/01/18 00:15 KHTO 180015Z AUTO 24015G23KT 10SM OVC040 02/M03 A2922 RMK AO2 T00211029
 
KFOK - Westhampton Beac, New York, USA
Distance from station: S 63mi, 102km
Updated: Mon, 17-Jan-2022 6:53pm EST
Light snow, Overcast
Light snow, Overcast
 Wind from WSW
Wind: WSW 28 mph , 44 km/h, Gust: 35 mph , 56 km/h
Temperature: 36°F , 2°C
Wind Chill: 23°F , -5°C
Dew Point: 27°F , -3°C
Humidity: 70%
Barometer: 29.24 inHg , 990.2 hPa
Summary: Light Snow
Clouds: Overcast
Visibility: 10 miles , 16 km
Cloud details: Few Clouds 3300 ft
Few Clouds 4000 ft
Overcast 4700 ft
2022/01/17 23:53 KFOK 172353Z 25024G30KT 10SM -SN FEW033 FEW040 OVC047 02/M03 A2924 RMK AO2 PK WND 24030/2334 SNB53 SLP903 P0000 60000 T00221028 10044 20022 53024
KMTP - Montauk, New York, USA
Distance from station: SE 64mi, 104km
Updated: Mon, 17-Jan-2022 6:54pm EST

 Wind from SW
Wind: SW 12 mph , 19 km/h, Gust: 26 mph , 43 km/h
Temperature: 37°F , 3°C
Wind Chill: 29°F , -2°C
Dew Point: 28°F , -2°C
Humidity: 70%
Barometer: 29.22 inHg , 989.5 hPa
2022/01/17 23:54 KMTP 172354Z AUTO 23010G23KT 03/M02 A2922 RMK AO1 SLP895 T00331017 10056 20033 51021